Terminal Aerodrome Forecast
Issued by NWS

Home | Current Version | Previous Version | Text Only | Print | Product List | Glossary On
Versions: 1 2 3 4 5 6 7 8 9 10 11 12 13 14 15 16 17 18 19 20 21 22 23 24 25
000
FTUS42 KJAX 180553
TAFCRG
TAF
KCRG 180553Z 1806/1906 VRB03KT P6SM SCT030 BKN120
     FM181000 00000KT 6SM BR BKN004
     FM181400 24006KT P6SM SCT007 BKN015 BKN120
     FM181600 26006KT P6SM SCT025 BKN040
     FM182000 16009KT P6SM VCSH SCT030 BKN050=

USA.gov is the U.S. government's official web portal to all federal, state and local government web resources and services.